sensor_id;sensor_type;location;lat;lon;timestamp;P1;durP1;ratioP1;P2;durP2;ratioP2
24273;SDS011;12392;42.678;23.380;2022-07-04T00:00:43;8.00;;;5.22;;
24273;SDS011;12392;42.678;23.380;2022-07-04T00:03:09;8.65;;;5.03;;
24273;SDS011;12392;42.678;23.380;2022-07-04T00:05:34;10.10;;;4.78;;
24273;SDS011;12392;42.678;23.380;2022-07-04T00:08:00;7.43;;;3.78;;
24273;SDS011;12392;42.678;23.380;2022-07-04T00:10:26;6.40;;;3.90;;
24273;SDS011;12392;42.678;23.380;2022-07-04T00:12:52;7.40;;;3.03;;
24273;SDS011;12392;42.678;23.380;2022-07-04T00:15:17;8.20;;;4.07;;
24273;SDS011;12392;42.678;23.380;2022-07-04T00:17:43;8.57;;;3.15;;
24273;SDS011;12392;42.678;23.380;2022-07-04T00:20:10;8.50;;;3.33;;
24273;SDS011;12392;42.678;23.380;2022-07-04T00:22:36;9.88;;;3.45;;
24273;SDS011;12392;42.678;23.380;2022-07-04T00:25:02;8.60;;;3.35;;
24273;SDS011;12392;42.678;23.380;2022-07-04T00:27:28;6.90;;;3.50;;
24273;SDS011;12392;42.678;23.380;2022-07-04T00:29:54;14.88;;;4.30;;
24273;SDS011;12392;42.678;23.380;2022-07-04T00:32:20;10.77;;;3.63;;
24273;SDS011;12392;42.678;23.380;2022-07-04T00:34:45;7.88;;;4.28;;
24273;SDS011;12392;42.678;23.380;2022-07-04T00:37:11;7.53;;;4.15;;
24273;SDS011;12392;42.678;23.380;2022-07-04T00:39:37;9.57;;;4.53;;
24273;SDS011;12392;42.678;23.380;2022-07-04T00:42:03;10.10;;;4.45;;
24273;SDS011;12392;42.678;23.380;2022-07-04T00:44:29;6.82;;;3.42;;
24273;SDS011;12392;42.678;23.380;2022-07-04T00:46:56;5.45;;;3.40;;
24273;SDS011;12392;42.678;23.380;2022-07-04T00:49:21;6.47;;;2.80;;
24273;SDS011;12392;42.678;23.380;2022-07-04T00:51:47;8.55;;;3.65;;
24273;SDS011;12392;42.678;23.380;2022-07-04T00:54:14;4.32;;;2.67;;
24273;SDS011;12392;42.678;23.380;2022-07-04T00:56:41;7.18;;;3.20;;
24273;SDS011;12392;42.678;23.380;2022-07-04T00:59:08;5.68;;;3.30;;
24273;SDS011;12392;42.678;23.380;2022-07-04T01:01:34;3.38;;;3.05;;
24273;SDS011;12392;42.678;23.380;2022-07-04T01:04:01;4.88;;;2.90;;
24273;SDS011;12392;42.678;23.380;2022-07-04T01:06:30;5.60;;;3.22;;
24273;SDS011;12392;42.678;23.380;2022-07-04T01:08:57;6.93;;;3.10;;
24273;SDS011;12392;42.678;23.380;2022-07-04T01:11:23;6.32;;;3.15;;
24273;SDS011;12392;42.678;23.380;2022-07-04T01:13:48;6.90;;;3.15;;
24273;SDS011;12392;42.678;23.380;2022-07-04T01:16:14;5.47;;;3.80;;
24273;SDS011;12392;42.678;23.380;2022-07-04T01:18:40;10.52;;;3.50;;
24273;SDS011;12392;42.678;23.380;2022-07-04T01:21:06;12.77;;;3.20;;
24273;SDS011;12392;42.678;23.380;2022-07-04T01:23:37;6.65;;;3.53;;
24273;SDS011;12392;42.678;23.380;2022-07-04T01:26:03;12.25;;;3.85;;
24273;SDS011;12392;42.678;23.380;2022-07-04T01:28:29;8.52;;;3.40;;
24273;SDS011;12392;42.678;23.380;2022-07-04T01:30:55;9.75;;;4.40;;
24273;SDS011;12392;42.678;23.380;2022-07-04T01:33:20;5.60;;;3.90;;
24273;SDS011;12392;42.678;23.380;2022-07-04T01:35:46;5.15;;;3.67;;
24273;SDS011;12392;42.678;23.380;2022-07-04T01:38:12;10.35;;;4.20;;
24273;SDS011;12392;42.678;23.380;2022-07-04T01:40:39;8.43;;;4.38;;
24273;SDS011;12392;42.678;23.380;2022-07-04T01:43:04;10.95;;;5.32;;
24273;SDS011;12392;42.678;23.380;2022-07-04T01:45:30;10.02;;;5.57;;
24273;SDS011;12392;42.678;23.380;2022-07-04T01:47:59;12.13;;;6.47;;
24273;SDS011;12392;42.678;23.380;2022-07-04T01:50:25;13.00;;;6.75;;
24273;SDS011;12392;42.678;23.380;2022-07-04T01:52:51;12.98;;;6.40;;
24273;SDS011;12392;42.678;23.380;2022-07-04T01:55:16;12.63;;;5.53;;
24273;SDS011;12392;42.678;23.380;2022-07-04T01:57:42;8.05;;;5.72;;
24273;SDS011;12392;42.678;23.380;2022-07-04T02:00:08;11.65;;;5.97;;
24273;SDS011;12392;42.678;23.380;2022-07-04T02:02:54;14.52;;;7.63;;
24273;SDS011;12392;42.678;23.380;2022-07-04T02:05:20;10.98;;;5.75;;
24273;SDS011;12392;42.678;23.380;2022-07-04T02:07:47;11.23;;;5.80;;
24273;SDS011;12392;42.678;23.380;2022-07-04T02:10:13;14.90;;;7.28;;
24273;SDS011;12392;42.678;23.380;2022-07-04T02:12:39;19.13;;;7.38;;
24273;SDS011;12392;42.678;23.380;2022-07-04T02:15:23;15.02;;;7.32;;
24273;SDS011;12392;42.678;23.380;2022-07-04T02:17:48;12.73;;;7.72;;
24273;SDS011;12392;42.678;23.380;2022-07-04T02:20:14;19.80;;;8.35;;
24273;SDS011;12392;42.678;23.380;2022-07-04T02:22:40;16.60;;;8.02;;
24273;SDS011;12392;42.678;23.380;2022-07-04T02:25:06;16.55;;;8.82;;
24273;SDS011;12392;42.678;23.380;2022-07-04T02:27:32;20.63;;;8.50;;
24273;SDS011;12392;42.678;23.380;2022-07-04T02:29:57;18.95;;;7.63;;
24273;SDS011;12392;42.678;23.380;2022-07-04T02:32:23;20.13;;;7.38;;
24273;SDS011;12392;42.678;23.380;2022-07-04T02:34:49;13.95;;;5.72;;
24273;SDS011;12392;42.678;23.380;2022-07-04T02:37:15;8.75;;;4.28;;
24273;SDS011;12392;42.678;23.380;2022-07-04T02:39:41;10.30;;;4.22;;
24273;SDS011;12392;42.678;23.380;2022-07-04T02:42:07;7.97;;;3.90;;
24273;SDS011;12392;42.678;23.380;2022-07-04T02:44:32;7.75;;;3.70;;
24273;SDS011;12392;42.678;23.380;2022-07-04T02:46:58;8.35;;;4.85;;
24273;SDS011;12392;42.678;23.380;2022-07-04T02:49:25;13.40;;;5.68;;
24273;SDS011;12392;42.678;23.380;2022-07-04T02:51:51;15.20;;;6.65;;
24273;SDS011;12392;42.678;23.380;2022-07-04T02:54:16;13.63;;;6.40;;
24273;SDS011;12392;42.678;23.380;2022-07-04T02:56:42;14.38;;;6.07;;
24273;SDS011;12392;42.678;23.380;2022-07-04T02:59:08;14.38;;;7.00;;
24273;SDS011;12392;42.678;23.380;2022-07-04T03:01:33;20.38;;;7.18;;
24273;SDS011;12392;42.678;23.380;2022-07-04T03:03:59;16.50;;;8.38;;
24273;SDS011;12392;42.678;23.380;2022-07-04T03:06:26;21.30;;;7.70;;
24273;SDS011;12392;42.678;23.380;2022-07-04T03:08:51;14.88;;;6.78;;
24273;SDS011;12392;42.678;23.380;2022-07-04T03:11:18;13.55;;;7.90;;
24273;SDS011;12392;42.678;23.380;2022-07-04T03:13:44;19.10;;;8.55;;
24273;SDS011;12392;42.678;23.380;2022-07-04T03:16:09;15.48;;;8.18;;
24273;SDS011;12392;42.678;23.380;2022-07-04T03:18:35;16.63;;;7.00;;
24273;SDS011;12392;42.678;23.380;2022-07-04T03:21:01;15.45;;;7.32;;
24273;SDS011;12392;42.678;23.380;2022-07-04T03:23:29;8.63;;;5.40;;
24273;SDS011;12392;42.678;23.380;2022-07-04T03:25:58;15.25;;;5.45;;
24273;SDS011;12392;42.678;23.380;2022-07-04T03:28:25;15.57;;;5.85;;
24273;SDS011;12392;42.678;23.380;2022-07-04T03:30:51;9.27;;;4.95;;
24273;SDS011;12392;42.678;23.380;2022-07-04T03:33:17;8.80;;;4.20;;
24273;SDS011;12392;42.678;23.380;2022-07-04T03:35:42;7.20;;;2.80;;
24273;SDS011;12392;42.678;23.380;2022-07-04T03:38:08;6.90;;;3.05;;
24273;SDS011;12392;42.678;23.380;2022-07-04T03:40:34;6.18;;;3.30;;
24273;SDS011;12392;42.678;23.380;2022-07-04T03:43:01;11.98;;;3.13;;
24273;SDS011;12392;42.678;23.380;2022-07-04T03:45:27;5.75;;;3.25;;
24273;SDS011;12392;42.678;23.380;2022-07-04T03:47:53;7.07;;;3.10;;
24273;SDS011;12392;42.678;23.380;2022-07-04T03:50:19;11.23;;;3.63;;
24273;SDS011;12392;42.678;23.380;2022-07-04T03:52:45;13.30;;;3.63;;
24273;SDS011;12392;42.678;23.380;2022-07-04T03:55:11;10.57;;;3.28;;
24273;SDS011;12392;42.678;23.380;2022-07-04T03:57:36;9.07;;;3.70;;
24273;SDS011;12392;42.678;23.380;2022-07-04T04:00:03;5.78;;;3.05;;
24273;SDS011;12392;42.678;23.380;2022-07-04T04:02:29;11.90;;;3.70;;
24273;SDS011;12392;42.678;23.380;2022-07-04T04:04:54;11.73;;;2.92;;
24273;SDS011;12392;42.678;23.380;2022-07-04T04:07:39;7.07;;;3.35;;
24273;SDS011;12392;42.678;23.380;2022-07-04T04:10:05;5.38;;;3.10;;
24273;SDS011;12392;42.678;23.380;2022-07-04T04:12:31;11.73;;;3.33;;
24273;SDS011;12392;42.678;23.380;2022-07-04T04:14:57;7.60;;;3.25;;
24273;SDS011;12392;42.678;23.380;2022-07-04T04:17:22;5.97;;;3.50;;
24273;SDS011;12392;42.678;23.380;2022-07-04T04:19:48;9.05;;;4.45;;
24273;SDS011;12392;42.678;23.380;2022-07-04T04:22:14;8.68;;;4.82;;
24273;SDS011;12392;42.678;23.380;2022-07-04T04:24:39;13.20;;;4.63;;
24273;SDS011;12392;42.678;23.380;2022-07-04T04:27:05;13.85;;;5.47;;
24273;SDS011;12392;42.678;23.380;2022-07-04T04:29:31;14.82;;;5.65;;
24273;SDS011;12392;42.678;23.380;2022-07-04T04:31:57;23.65;;;4.60;;
24273;SDS011;12392;42.678;23.380;2022-07-04T04:34:22;18.35;;;5.38;;
24273;SDS011;12392;42.678;23.380;2022-07-04T04:36:48;7.82;;;3.92;;
24273;SDS011;12392;42.678;23.380;2022-07-04T04:39:14;8.23;;;4.10;;
24273;SDS011;12392;42.678;23.380;2022-07-04T04:41:39;7.78;;;3.47;;
24273;SDS011;12392;42.678;23.380;2022-07-04T04:44:05;6.07;;;3.42;;
24273;SDS011;12392;42.678;23.380;2022-07-04T04:46:31;6.18;;;3.00;;
24273;SDS011;12392;42.678;23.380;2022-07-04T04:48:57;5.57;;;3.08;;
24273;SDS011;12392;42.678;23.380;2022-07-04T04:51:23;4.97;;;2.40;;
24273;SDS011;12392;42.678;23.380;2022-07-04T04:53:48;4.30;;;2.17;;
24273;SDS011;12392;42.678;23.380;2022-07-04T04:56:14;4.78;;;2.42;;
24273;SDS011;12392;42.678;23.380;2022-07-04T04:58:40;6.90;;;2.33;;
24273;SDS011;12392;42.678;23.380;2022-07-04T05:01:06;7.70;;;2.72;;
24273;SDS011;12392;42.678;23.380;2022-07-04T05:03:31;6.60;;;2.80;;
24273;SDS011;12392;42.678;23.380;2022-07-04T05:05:57;3.95;;;2.45;;
24273;SDS011;12392;42.678;23.380;2022-07-04T05:08:23;3.95;;;2.45;;
24273;SDS011;12392;42.678;23.380;2022-07-04T05:10:52;5.93;;;2.25;;
24273;SDS011;12392;42.678;23.380;2022-07-04T05:13:18;9.27;;;2.25;;
24273;SDS011;12392;42.678;23.380;2022-07-04T05:15:44;7.40;;;2.80;;
24273;SDS011;12392;42.678;23.380;2022-07-04T05:18:11;9.80;;;2.92;;
24273;SDS011;12392;42.678;23.380;2022-07-04T05:20:37;3.55;;;2.50;;
24273;SDS011;12392;42.678;23.380;2022-07-04T05:23:04;9.73;;;2.83;;
24273;SDS011;12392;42.678;23.380;2022-07-04T05:25:30;11.40;;;2.65;;
24273;SDS011;12392;42.678;23.380;2022-07-04T05:27:56;9.60;;;2.53;;
24273;SDS011;12392;42.678;23.380;2022-07-04T05:30:21;6.50;;;2.10;;
24273;SDS011;12392;42.678;23.380;2022-07-04T05:32:48;5.32;;;2.58;;
24273;SDS011;12392;42.678;23.380;2022-07-04T05:35:13;10.68;;;2.80;;
24273;SDS011;12392;42.678;23.380;2022-07-04T05:37:39;7.03;;;2.67;;
24273;SDS011;12392;42.678;23.380;2022-07-04T05:40:05;12.63;;;2.47;;
24273;SDS011;12392;42.678;23.380;2022-07-04T05:42:31;6.00;;;2.60;;
24273;SDS011;12392;42.678;23.380;2022-07-04T05:44:58;9.18;;;2.40;;
24273;SDS011;12392;42.678;23.380;2022-07-04T05:47:24;5.88;;;2.72;;
24273;SDS011;12392;42.678;23.380;2022-07-04T05:49:50;6.70;;;2.33;;
24273;SDS011;12392;42.678;23.380;2022-07-04T05:52:16;4.97;;;2.33;;
24273;SDS011;12392;42.678;23.380;2022-07-04T05:54:42;5.65;;;2.33;;
24273;SDS011;12392;42.678;23.380;2022-07-04T05:57:08;4.47;;;2.28;;
24273;SDS011;12392;42.678;23.380;2022-07-04T05:59:34;4.95;;;2.35;;
24273;SDS011;12392;42.678;23.380;2022-07-04T06:02:00;9.60;;;2.38;;
24273;SDS011;12392;42.678;23.380;2022-07-04T06:04:25;10.02;;;2.17;;
24273;SDS011;12392;42.678;23.380;2022-07-04T06:06:51;3.63;;;2.05;;
24273;SDS011;12392;42.678;23.380;2022-07-04T06:09:17;6.82;;;2.58;;
24273;SDS011;12392;42.678;23.380;2022-07-04T06:11:43;8.80;;;2.25;;
24273;SDS011;12392;42.678;23.380;2022-07-04T06:14:09;9.38;;;6.35;;
24273;SDS011;12392;42.678;23.380;2022-07-04T06:16:35;5.90;;;2.53;;
24273;SDS011;12392;42.678;23.380;2022-07-04T06:19:00;2.45;;;2.05;;
24273;SDS011;12392;42.678;23.380;2022-07-04T06:21:26;4.25;;;2.30;;
24273;SDS011;12392;42.678;23.380;2022-07-04T06:23:52;5.60;;;2.42;;
24273;SDS011;12392;42.678;23.380;2022-07-04T06:26:18;5.25;;;2.35;;
24273;SDS011;12392;42.678;23.380;2022-07-04T06:28:43;6.13;;;2.47;;
24273;SDS011;12392;42.678;23.380;2022-07-04T06:31:10;8.23;;;2.60;;
24273;SDS011;12392;42.678;23.380;2022-07-04T06:33:36;8.27;;;2.67;;
24273;SDS011;12392;42.678;23.380;2022-07-04T06:36:22;6.20;;;2.63;;
24273;SDS011;12392;42.678;23.380;2022-07-04T06:38:48;7.22;;;2.90;;
24273;SDS011;12392;42.678;23.380;2022-07-04T06:41:14;3.25;;;2.50;;
24273;SDS011;12392;42.678;23.380;2022-07-04T06:43:40;3.15;;;2.33;;
24273;SDS011;12392;42.678;23.380;2022-07-04T06:46:05;7.82;;;2.60;;
24273;SDS011;12392;42.678;23.380;2022-07-04T06:48:31;7.32;;;2.78;;
24273;SDS011;12392;42.678;23.380;2022-07-04T06:50:57;7.88;;;2.85;;
24273;SDS011;12392;42.678;23.380;2022-07-04T06:53:23;6.63;;;2.45;;
24273;SDS011;12392;42.678;23.380;2022-07-04T06:55:49;6.75;;;2.70;;
24273;SDS011;12392;42.678;23.380;2022-07-04T06:58:14;7.60;;;2.70;;
24273;SDS011;12392;42.678;23.380;2022-07-04T07:00:40;8.73;;;3.25;;
24273;SDS011;12392;42.678;23.380;2022-07-04T07:03:06;5.85;;;2.67;;
24273;SDS011;12392;42.678;23.380;2022-07-04T07:05:32;8.77;;;5.90;;
24273;SDS011;12392;42.678;23.380;2022-07-04T07:08:02;4.72;;;2.55;;
24273;SDS011;12392;42.678;23.380;2022-07-04T07:10:28;3.78;;;2.40;;
24273;SDS011;12392;42.678;23.380;2022-07-04T07:12:54;6.10;;;2.72;;
24273;SDS011;12392;42.678;23.380;2022-07-04T07:15:20;9.07;;;2.65;;
24273;SDS011;12392;42.678;23.380;2022-07-04T07:17:46;10.32;;;2.83;;
24273;SDS011;12392;42.678;23.380;2022-07-04T07:20:12;4.25;;;2.95;;
24273;SDS011;12392;42.678;23.380;2022-07-04T07:22:38;4.05;;;3.17;;
24273;SDS011;12392;42.678;23.380;2022-07-04T07:25:06;6.63;;;3.10;;
24273;SDS011;12392;42.678;23.380;2022-07-04T07:27:32;4.55;;;2.80;;
24273;SDS011;12392;42.678;23.380;2022-07-04T07:29:58;9.50;;;3.20;;
24273;SDS011;12392;42.678;23.380;2022-07-04T07:32:24;3.90;;;3.00;;
24273;SDS011;12392;42.678;23.380;2022-07-04T07:34:49;13.60;;;7.88;;
24273;SDS011;12392;42.678;23.380;2022-07-04T07:37:15;6.75;;;3.55;;
24273;SDS011;12392;42.678;23.380;2022-07-04T07:39:42;11.00;;;3.58;;
24273;SDS011;12392;42.678;23.380;2022-07-04T07:42:09;11.50;;;3.55;;
24273;SDS011;12392;42.678;23.380;2022-07-04T07:44:41;6.00;;;3.83;;
24273;SDS011;12392;42.678;23.380;2022-07-04T07:47:11;7.82;;;3.60;;
24273;SDS011;12392;42.678;23.380;2022-07-04T07:49:46;6.45;;;3.05;;
24273;SDS011;12392;42.678;23.380;2022-07-04T07:52:13;7.78;;;3.40;;
24273;SDS011;12392;42.678;23.380;2022-07-04T07:54:40;8.68;;;3.15;;
24273;SDS011;12392;42.678;23.380;2022-07-04T07:57:06;14.27;;;3.60;;
24273;SDS011;12392;42.678;23.380;2022-07-04T07:59:32;6.88;;;3.08;;
24273;SDS011;12392;42.678;23.380;2022-07-04T08:01:57;5.57;;;3.30;;
24273;SDS011;12392;42.678;23.380;2022-07-04T08:04:24;8.32;;;3.38;;
24273;SDS011;12392;42.678;23.380;2022-07-04T08:07:03;11.27;;;3.30;;
24273;SDS011;12392;42.678;23.380;2022-07-04T08:09:30;7.13;;;3.22;;
24273;SDS011;12392;42.678;23.380;2022-07-04T08:11:56;12.85;;;3.25;;
24273;SDS011;12392;42.678;23.380;2022-07-04T08:14:22;15.88;;;3.58;;
24273;SDS011;12392;42.678;23.380;2022-07-04T08:16:48;4.18;;;2.97;;
24273;SDS011;12392;42.678;23.380;2022-07-04T08:19:14;9.15;;;3.42;;
24273;SDS011;12392;42.678;23.380;2022-07-04T08:21:39;10.73;;;3.55;;
24273;SDS011;12392;42.678;23.380;2022-07-04T08:24:05;6.10;;;3.80;;
24273;SDS011;12392;42.678;23.380;2022-07-04T08:26:31;6.50;;;3.92;;
24273;SDS011;12392;42.678;23.380;2022-07-04T08:28:58;5.00;;;3.90;;
24273;SDS011;12392;42.678;23.380;2022-07-04T08:31:24;8.25;;;4.32;;
24273;SDS011;12392;42.678;23.380;2022-07-04T08:33:51;7.03;;;3.67;;
24273;SDS011;12392;42.678;23.380;2022-07-04T08:40:06;9.60;;;3.65;;
24273;SDS011;12392;42.678;23.380;2022-07-04T08:42:39;7.75;;;4.40;;
24273;SDS011;12392;42.678;23.380;2022-07-04T08:45:05;9.75;;;4.93;;
24273;SDS011;12392;42.678;23.380;2022-07-04T08:47:33;12.43;;;5.38;;
24273;SDS011;12392;42.678;23.380;2022-07-04T08:52:37;5.88;;;4.18;;
24273;SDS011;12392;42.678;23.380;2022-07-04T08:55:05;5.88;;;4.05;;
24273;SDS011;12392;42.678;23.380;2022-07-04T08:57:51;5.25;;;4.30;;
24273;SDS011;12392;42.678;23.380;2022-07-04T09:00:36;8.60;;;4.15;;
24273;SDS011;12392;42.678;23.380;2022-07-04T09:03:02;11.40;;;4.40;;
24273;SDS011;12392;42.678;23.380;2022-07-04T09:05:29;7.07;;;4.75;;
24273;SDS011;12392;42.678;23.380;2022-07-04T09:07:57;9.13;;;4.72;;
24273;SDS011;12392;42.678;23.380;2022-07-04T09:10:23;9.52;;;4.63;;
24273;SDS011;12392;42.678;23.380;2022-07-04T09:12:48;10.30;;;4.50;;
24273;SDS011;12392;42.678;23.380;2022-07-04T09:15:17;7.53;;;5.38;;
24273;SDS011;12392;42.678;23.380;2022-07-04T09:17:44;8.00;;;4.78;;
24273;SDS011;12392;42.678;23.380;2022-07-04T09:20:19;8.20;;;4.88;;
24273;SDS011;12392;42.678;23.380;2022-07-04T09:22:47;10.00;;;6.47;;
24273;SDS011;12392;42.678;23.380;2022-07-04T09:25:15;11.07;;;4.32;;
24273;SDS011;12392;42.678;23.380;2022-07-04T09:27:45;8.65;;;4.38;;
24273;SDS011;12392;42.678;23.380;2022-07-04T09:30:17;7.85;;;5.55;;
24273;SDS011;12392;42.678;23.380;2022-07-04T09:32:46;5.85;;;4.53;;
24273;SDS011;12392;42.678;23.380;2022-07-04T09:35:19;4.95;;;4.22;;
24273;SDS011;12392;42.678;23.380;2022-07-04T09:37:47;7.63;;;4.28;;
24273;SDS011;12392;42.678;23.380;2022-07-04T09:40:22;5.93;;;3.90;;
24273;SDS011;12392;42.678;23.380;2022-07-04T09:42:49;5.80;;;4.50;;
24273;SDS011;12392;42.678;23.380;2022-07-04T09:45:15;9.30;;;4.53;;
24273;SDS011;12392;42.678;23.380;2022-07-04T09:47:43;6.10;;;4.70;;
24273;SDS011;12392;42.678;23.380;2022-07-04T09:50:12;10.55;;;4.60;;
24273;SDS011;12392;42.678;23.380;2022-07-04T09:52:55;11.02;;;4.60;;
24273;SDS011;12392;42.678;23.380;2022-07-04T09:58:01;5.38;;;4.82;;
24273;SDS011;12392;42.678;23.380;2022-07-04T10:03:18;8.20;;;5.15;;
24273;SDS011;12392;42.678;23.380;2022-07-04T10:06:01;8.48;;;4.70;;
24273;SDS011;12392;42.678;23.380;2022-07-04T10:08:33;6.00;;;5.18;;
24273;SDS011;12392;42.678;23.380;2022-07-04T10:11:00;9.75;;;4.90;;
24273;SDS011;12392;42.678;23.380;2022-07-04T10:13:26;5.70;;;4.80;;
24273;SDS011;12392;42.678;23.380;2022-07-04T10:15:52;5.95;;;4.72;;
24273;SDS011;12392;42.678;23.380;2022-07-04T10:18:19;5.63;;;4.70;;
24273;SDS011;12392;42.678;23.380;2022-07-04T10:20:46;15.13;;;10.27;;
24273;SDS011;12392;42.678;23.380;2022-07-04T10:23:14;10.35;;;5.55;;
24273;SDS011;12392;42.678;23.380;2022-07-04T10:25:40;6.68;;;5.18;;
24273;SDS011;12392;42.678;23.380;2022-07-04T10:28:07;6.13;;;4.70;;
24273;SDS011;12392;42.678;23.380;2022-07-04T10:30:37;6.88;;;4.75;;
24273;SDS011;12392;42.678;23.380;2022-07-04T10:33:04;9.32;;;5.15;;
24273;SDS011;12392;42.678;23.380;2022-07-04T10:35:48;7.20;;;5.07;;
24273;SDS011;12392;42.678;23.380;2022-07-04T10:38:24;7.53;;;4.88;;
24273;SDS011;12392;42.678;23.380;2022-07-04T10:40:57;6.72;;;5.60;;
24273;SDS011;12392;42.678;23.380;2022-07-04T10:51:14;7.85;;;5.78;;
24273;SDS011;12392;42.678;23.380;2022-07-04T10:57:10;7.30;;;5.78;;
24273;SDS011;12392;42.678;23.380;2022-07-04T10:59:37;5.95;;;4.93;;
24273;SDS011;12392;42.678;23.380;2022-07-04T11:07:18;9.27;;;5.55;;
24273;SDS011;12392;42.678;23.380;2022-07-04T11:10:17;6.28;;;5.63;;
24273;SDS011;12392;42.678;23.380;2022-07-04T11:18:10;6.80;;;5.63;;
24273;SDS011;12392;42.678;23.380;2022-07-04T11:20:41;6.60;;;5.28;;
24273;SDS011;12392;42.678;23.380;2022-07-04T11:23:09;7.55;;;5.40;;
24273;SDS011;12392;42.678;23.380;2022-07-04T11:25:36;8.82;;;5.70;;
24273;SDS011;12392;42.678;23.380;2022-07-04T11:30:54;7.25;;;5.22;;
24273;SDS011;12392;42.678;23.380;2022-07-04T11:33:26;10.25;;;5.95;;
24273;SDS011;12392;42.678;23.380;2022-07-04T11:36:10;8.75;;;5.55;;
24273;SDS011;12392;42.678;23.380;2022-07-04T11:38:46;11.90;;;7.63;;
24273;SDS011;12392;42.678;23.380;2022-07-04T11:41:20;8.18;;;6.38;;
24273;SDS011;12392;42.678;23.380;2022-07-04T11:44:17;11.02;;;5.55;;
24273;SDS011;12392;42.678;23.380;2022-07-04T11:49:33;8.55;;;5.57;;
24273;SDS011;12392;42.678;23.380;2022-07-04T11:51:59;6.82;;;5.45;;
24273;SDS011;12392;42.678;23.380;2022-07-04T11:54:25;7.68;;;5.45;;
24273;SDS011;12392;42.678;23.380;2022-07-04T11:56:52;8.52;;;5.50;;
24273;SDS011;12392;42.678;23.380;2022-07-04T11:59:17;8.02;;;5.93;;
24273;SDS011;12392;42.678;23.380;2022-07-04T12:01:44;8.00;;;5.63;;
24273;SDS011;12392;42.678;23.380;2022-07-04T12:04:14;9.02;;;5.60;;
24273;SDS011;12392;42.678;23.380;2022-07-04T12:06:41;8.10;;;5.72;;
24273;SDS011;12392;42.678;23.380;2022-07-04T12:09:08;10.43;;;6.13;;
24273;SDS011;12392;42.678;23.380;2022-07-04T12:11:52;6.93;;;5.28;;
24273;SDS011;12392;42.678;23.380;2022-07-04T12:14:23;10.18;;;5.53;;
24273;SDS011;12392;42.678;23.380;2022-07-04T12:16:55;14.82;;;6.20;;
24273;SDS011;12392;42.678;23.380;2022-07-04T12:19:35;6.40;;;5.35;;
24273;SDS011;12392;42.678;23.380;2022-07-04T12:22:01;6.47;;;5.45;;
24273;SDS011;12392;42.678;23.380;2022-07-04T12:24:28;9.98;;;5.68;;
24273;SDS011;12392;42.678;23.380;2022-07-04T12:27:04;8.70;;;5.43;;
24273;SDS011;12392;42.678;23.380;2022-07-04T12:29:30;6.07;;;5.03;;
24273;SDS011;12392;42.678;23.380;2022-07-04T12:31:56;7.25;;;5.60;;
24273;SDS011;12392;42.678;23.380;2022-07-04T12:34:22;6.15;;;5.30;;
24273;SDS011;12392;42.678;23.380;2022-07-04T12:36:49;6.40;;;5.38;;
24273;SDS011;12392;42.678;23.380;2022-07-04T12:39:32;7.22;;;5.65;;
24273;SDS011;12392;42.678;23.380;2022-07-04T12:44:37;12.45;;;6.65;;
24273;SDS011;12392;42.678;23.380;2022-07-04T12:47:04;6.82;;;5.38;;
24273;SDS011;12392;42.678;23.380;2022-07-04T12:49:31;10.68;;;5.57;;
24273;SDS011;12392;42.678;23.380;2022-07-04T12:52:03;8.82;;;5.25;;
24273;SDS011;12392;42.678;23.380;2022-07-04T12:54:33;7.38;;;5.75;;
24273;SDS011;12392;42.678;23.380;2022-07-04T12:57:15;10.35;;;5.95;;
24273;SDS011;12392;42.678;23.380;2022-07-04T12:59:43;7.63;;;5.30;;
24273;SDS011;12392;42.678;23.380;2022-07-04T13:02:10;6.80;;;5.38;;
24273;SDS011;12392;42.678;23.380;2022-07-04T13:04:39;8.57;;;5.47;;
24273;SDS011;12392;42.678;23.380;2022-07-04T13:07:15;6.22;;;5.63;;
24273;SDS011;12392;42.678;23.380;2022-07-04T13:09:42;9.20;;;6.00;;
24273;SDS011;12392;42.678;23.380;2022-07-04T13:12:09;7.38;;;5.30;;
24273;SDS011;12392;42.678;23.380;2022-07-04T13:14:53;6.93;;;5.38;;
24273;SDS011;12392;42.678;23.380;2022-07-04T13:17:20;9.52;;;5.97;;
24273;SDS011;12392;42.678;23.380;2022-07-04T13:19:46;7.00;;;5.43;;
24273;SDS011;12392;42.678;23.380;2022-07-04T13:22:12;8.65;;;5.53;;
24273;SDS011;12392;42.678;23.380;2022-07-04T13:24:38;7.00;;;5.18;;
24273;SDS011;12392;42.678;23.380;2022-07-04T13:27:04;9.18;;;5.45;;
24273;SDS011;12392;42.678;23.380;2022-07-04T13:29:30;7.85;;;5.97;;
24273;SDS011;12392;42.678;23.380;2022-07-04T13:31:55;15.30;;;6.13;;
24273;SDS011;12392;42.678;23.380;2022-07-04T13:34:21;12.25;;;6.95;;
24273;SDS011;12392;42.678;23.380;2022-07-04T13:36:47;10.02;;;5.78;;
24273;SDS011;12392;42.678;23.380;2022-07-04T13:39:12;6.57;;;5.68;;
24273;SDS011;12392;42.678;23.380;2022-07-04T13:41:38;7.10;;;6.00;;
24273;SDS011;12392;42.678;23.380;2022-07-04T13:44:05;10.40;;;5.88;;
24273;SDS011;12392;42.678;23.380;2022-07-04T13:46:31;8.38;;;6.10;;
24273;SDS011;12392;42.678;23.380;2022-07-04T13:49:03;7.93;;;5.47;;
24273;SDS011;12392;42.678;23.380;2022-07-04T13:51:30;7.95;;;5.93;;
24273;SDS011;12392;42.678;23.380;2022-07-04T13:53:55;8.85;;;5.50;;
24273;SDS011;12392;42.678;23.380;2022-07-04T13:56:21;8.73;;;5.40;;
24273;SDS011;12392;42.678;23.380;2022-07-04T13:58:47;7.70;;;5.68;;
24273;SDS011;12392;42.678;23.380;2022-07-04T14:01:13;16.77;;;5.85;;
24273;SDS011;12392;42.678;23.380;2022-07-04T14:03:42;13.02;;;5.97;;
24273;SDS011;12392;42.678;23.380;2022-07-04T14:06:07;9.68;;;5.75;;
24273;SDS011;12392;42.678;23.380;2022-07-04T14:08:33;8.98;;;6.25;;
24273;SDS011;12392;42.678;23.380;2022-07-04T14:10:59;11.27;;;5.85;;
24273;SDS011;12392;42.678;23.380;2022-07-04T14:13:25;9.00;;;5.68;;
24273;SDS011;12392;42.678;23.380;2022-07-04T14:15:51;10.90;;;6.10;;
24273;SDS011;12392;42.678;23.380;2022-07-04T14:18:17;8.70;;;6.10;;
24273;SDS011;12392;42.678;23.380;2022-07-04T14:20:43;9.30;;;6.15;;
24273;SDS011;12392;42.678;23.380;2022-07-04T14:23:09;7.90;;;6.18;;
24273;SDS011;12392;42.678;23.380;2022-07-04T14:25:34;6.82;;;5.85;;
24273;SDS011;12392;42.678;23.380;2022-07-04T14:28:00;16.10;;;6.85;;
24273;SDS011;12392;42.678;23.380;2022-07-04T14:30:26;8.38;;;6.05;;
24273;SDS011;12392;42.678;23.380;2022-07-04T14:32:52;7.75;;;6.53;;
24273;SDS011;12392;42.678;23.380;2022-07-04T14:35:17;8.23;;;6.18;;
24273;SDS011;12392;42.678;23.380;2022-07-04T14:37:43;7.07;;;5.78;;
24273;SDS011;12392;42.678;23.380;2022-07-04T14:40:09;7.90;;;5.85;;
24273;SDS011;12392;42.678;23.380;2022-07-04T14:42:36;6.63;;;5.47;;
24273;SDS011;12392;42.678;23.380;2022-07-04T14:45:02;8.38;;;5.70;;
24273;SDS011;12392;42.678;23.380;2022-07-04T14:47:28;6.13;;;5.53;;
24273;SDS011;12392;42.678;23.380;2022-07-04T14:49:56;6.05;;;5.45;;
24273;SDS011;12392;42.678;23.380;2022-07-04T14:52:22;10.45;;;5.60;;
24273;SDS011;12392;42.678;23.380;2022-07-04T14:54:48;6.95;;;5.68;;
24273;SDS011;12392;42.678;23.380;2022-07-04T14:57:14;8.93;;;5.90;;
24273;SDS011;12392;42.678;23.380;2022-07-04T14:59:39;11.43;;;5.72;;
24273;SDS011;12392;42.678;23.380;2022-07-04T15:02:06;8.75;;;5.97;;
24273;SDS011;12392;42.678;23.380;2022-07-04T15:04:32;11.07;;;5.80;;
24273;SDS011;12392;42.678;23.380;2022-07-04T15:06:58;6.43;;;5.78;;
24273;SDS011;12392;42.678;23.380;2022-07-04T15:09:23;9.32;;;5.03;;
24273;SDS011;12392;42.678;23.380;2022-07-04T15:11:49;8.05;;;5.97;;
24273;SDS011;12392;42.678;23.380;2022-07-04T15:14:16;6.35;;;5.75;;